createdAt,value
2023-01-29T00:02:12.079Z,36.53
2023-01-29T00:04:39.651Z,36.83
2023-01-29T00:07:07.040Z,36.67
2023-01-29T00:09:33.764Z,36.03
2023-01-29T00:12:00.559Z,37.08
2023-01-29T00:14:29.994Z,37.63
2023-01-29T00:16:56.737Z,38.80
2023-01-29T00:19:23.549Z,37.33
2023-01-29T00:21:50.275Z,38.72
2023-01-29T00:24:18.411Z,37.58
2023-01-29T00:26:45.315Z,35.85
2023-01-29T00:29:12.298Z,37.15
2023-01-29T00:31:39.136Z,37.22
2023-01-29T00:34:05.849Z,35.47
2023-01-29T00:36:32.551Z,35.95
2023-01-29T00:39:02.933Z,35.42
2023-01-29T00:41:51.763Z,35.38
2023-01-29T00:44:37.656Z,35.30
2023-01-29T00:47:25.760Z,36.25
2023-01-29T00:49:53.836Z,36.28
2023-01-29T00:52:26.563Z,37.85
2023-01-29T00:54:54.367Z,34.92
2023-01-29T00:57:23.331Z,36.38
2023-01-29T00:59:50.952Z,35.50
2023-01-29T01:02:38.038Z,36.30
2023-01-29T01:05:07.908Z,37.50
2023-01-29T01:07:34.652Z,35.38
2023-01-29T01:10:19.856Z,36.50
2023-01-29T01:12:58.188Z,35.13
2023-01-29T01:15:27.915Z,37.65
2023-01-29T01:18:00.217Z,35.72
2023-01-29T01:20:28.686Z,34.55
2023-01-29T01:22:56.422Z,34.92
2023-01-29T01:25:24.697Z,34.47
2023-01-29T01:27:57.836Z,34.40
2023-01-29T01:30:26.937Z,32.73
2023-01-29T01:32:53.934Z,32.38
2023-01-29T01:35:20.954Z,34.03
2023-01-29T01:37:47.691Z,34.28
2023-01-29T01:40:22.976Z,34.97
2023-01-29T01:42:56.160Z,34.85
2023-01-29T01:45:30.623Z,33.55
2023-01-29T01:48:19.086Z,34.17
2023-01-29T01:51:03.447Z,34.35
2023-01-29T01:56:06.121Z,32.83
2023-01-29T01:58:47.915Z,34.70
2023-01-29T02:01:14.832Z,36.05
2023-01-29T02:04:07.626Z,34.55
2023-01-29T02:06:54.549Z,33.65
2023-01-29T02:09:38.969Z,34.53
2023-01-29T02:12:09.547Z,34.53
2023-01-29T02:14:40.611Z,35.97
2023-01-29T02:17:19.500Z,34.83
2023-01-29T02:20:32.984Z,37.10
2023-01-29T02:23:35.293Z,36.72
2023-01-29T02:26:27.104Z,36.08
2023-01-29T02:29:22.896Z,33.95
2023-01-29T02:32:03.850Z,34.00
2023-01-29T02:35:12.645Z,36.72
2023-01-29T02:37:57.333Z,33.08
2023-01-29T02:40:34.198Z,34.42
2023-01-29T02:43:26.610Z,34.00
2023-01-29T02:46:18.810Z,35.20
2023-01-29T02:48:56.150Z,34.75
2023-01-29T02:51:39.514Z,35.13
2023-01-29T02:54:40.093Z,36.33
2023-01-29T02:57:23.280Z,35.00
2023-01-29T02:59:55.527Z,34.05
2023-01-29T03:02:46.912Z,34.10
2023-01-29T03:05:20.599Z,34.55
2023-01-29T03:07:53.811Z,33.33
2023-01-29T03:10:37.820Z,34.13
2023-01-29T03:13:13.595Z,34.25
2023-01-29T03:15:46.926Z,33.85
2023-01-29T03:18:23.069Z,34.42
2023-01-29T03:20:58.473Z,35.25
2023-01-29T03:23:50.541Z,34.47
2023-01-29T03:26:39.953Z,34.13
2023-01-29T03:29:27.682Z,32.92
2023-01-29T03:32:06.811Z,34.72
2023-01-29T03:34:42.101Z,34.35
2023-01-29T03:37:35.092Z,35.80
2023-01-29T03:40:04.418Z,33.80
2023-01-29T03:42:57.249Z,34.88
2023-01-29T03:45:35.563Z,34.63
2023-01-29T03:48:08.951Z,35.17
2023-01-29T03:50:52.861Z,27.65
2023-01-29T03:53:30.552Z,37.45
2023-01-29T03:56:18.494Z,36.03
2023-01-29T03:58:54.170Z,38.47
2023-01-29T04:01:31.976Z,36.88
2023-01-29T04:04:05.586Z,36.10
2023-01-29T04:06:36.037Z,35.53
2023-01-29T04:09:22.253Z,35.47
2023-01-29T04:11:56.986Z,35.30
2023-01-29T04:14:23.892Z,36.42
2023-01-29T04:16:55.858Z,34.58
2023-01-29T04:19:23.849Z,34.95
2023-01-29T04:21:58.329Z,35.95
2023-01-29T04:24:25.180Z,34.97
2023-01-29T04:27:05.147Z,35.00
2023-01-29T04:30:02.434Z,33.55
2023-01-29T04:32:38.887Z,34.00
2023-01-29T04:35:18.646Z,36.53
2023-01-29T04:37:57.548Z,34.22
2023-01-29T04:40:37.651Z,32.88
2023-01-29T04:43:21.438Z,34.90
2023-01-29T04:46:24.438Z,33.28
2023-01-29T04:49:16.427Z,30.85
2023-01-29T04:51:58.191Z,30.83
2023-01-29T04:54:32.409Z,32.10
2023-01-29T04:57:23.171Z,34.28
2023-01-29T05:00:00.067Z,32.28
2023-01-29T05:02:28.418Z,28.65
2023-01-29T05:04:57.476Z,27.30
2023-01-29T05:07:27.178Z,28.80
2023-01-29T05:09:54.939Z,28.13
2023-01-29T05:12:25.289Z,29.23
2023-01-29T05:14:55.985Z,28.33
2023-01-29T05:17:22.712Z,27.65
2023-01-29T05:19:49.483Z,28.85
2023-01-29T05:22:19.048Z,27.50
2023-01-29T05:24:46.612Z,29.35
2023-01-29T05:27:41.622Z,28.90
2023-01-29T05:30:10.383Z,28.15
2023-01-29T05:32:40.097Z,28.83
2023-01-29T05:35:07.182Z,27.70
2023-01-29T05:37:33.856Z,26.63
2023-01-29T05:40:00.517Z,26.38
2023-01-29T05:42:27.425Z,26.92
2023-01-29T05:44:54.387Z,26.63
2023-01-29T05:47:21.533Z,26.98
2023-01-29T05:49:49.285Z,25.67
2023-01-29T05:52:16.279Z,27.20
2023-01-29T05:54:43.339Z,27.08
2023-01-29T05:57:10.198Z,27.08
2023-01-29T05:59:37.005Z,25.75
2023-01-29T06:02:03.845Z,26.25
2023-01-29T06:04:30.636Z,26.27
2023-01-29T06:06:58.566Z,26.98
2023-01-29T06:09:25.315Z,25.88
2023-01-29T06:11:52.054Z,27.13
2023-01-29T06:14:18.729Z,24.75
2023-01-29T06:16:45.611Z,24.77
2023-01-29T06:19:12.286Z,26.13
2023-01-29T06:21:39.467Z,24.85
2023-01-29T06:24:07.647Z,25.55
2023-01-29T06:26:35.088Z,26.92
2023-01-29T06:29:03.066Z,26.67
2023-01-29T06:31:38.271Z,26.05
2023-01-29T06:34:06.681Z,24.10
2023-01-29T06:36:33.480Z,25.42
2023-01-29T06:39:00.417Z,27.88
2023-01-29T06:41:29.063Z,25.70
2023-01-29T06:43:55.873Z,26.98
2023-01-29T06:46:22.598Z,25.70
2023-01-29T06:48:49.372Z,25.35
2023-01-29T06:51:16.140Z,24.90
2023-01-29T06:53:44.738Z,26.35
2023-01-29T06:56:12.704Z,26.60
2023-01-29T06:58:40.039Z,26.48
2023-01-29T07:01:09.038Z,24.92
2023-01-29T07:03:36.557Z,25.20
2023-01-29T07:06:03.726Z,24.92
2023-01-29T07:08:32.342Z,24.40
2023-01-29T07:11:02.889Z,26.35
2023-01-29T07:13:29.726Z,26.17
2023-01-29T07:16:01.206Z,25.85
2023-01-29T07:18:29.004Z,23.95
2023-01-29T07:20:55.884Z,25.30
2023-01-29T07:23:22.946Z,27.95
2023-01-29T07:25:50.270Z,25.73
2023-01-29T07:28:18.361Z,26.90
2023-01-29T07:30:45.177Z,26.92
2023-01-29T07:33:12.077Z,25.80
2023-01-29T07:35:40.605Z,26.58
2023-01-29T07:38:09.979Z,26.98
2023-01-29T07:40:37.251Z,26.75
2023-01-29T07:43:06.159Z,28.13
2023-01-29T07:45:35.215Z,27.27
2023-01-29T07:48:02.137Z,27.73
2023-01-29T07:50:31.039Z,29.88
2023-01-29T07:52:58.695Z,36.78
2023-01-29T07:55:26.696Z,30.08
2023-01-29T07:57:57.135Z,31.60
2023-01-29T08:00:24.478Z,42.10
2023-01-29T08:02:51.775Z,37.30
2023-01-29T08:05:19.220Z,30.48
2023-01-29T08:07:51.551Z,29.00
2023-01-29T08:10:28.100Z,26.95
2023-01-29T08:12:59.513Z,27.67
2023-01-29T08:15:28.199Z,27.25
2023-01-29T08:20:42.142Z,28.92
2023-01-29T08:23:13.966Z,27.58
2023-01-29T08:25:41.128Z,28.05
2023-01-29T08:28:08.756Z,28.58
2023-01-29T08:30:37.124Z,29.42
2023-01-29T08:33:04.655Z,29.33
2023-01-29T08:35:31.760Z,29.02
2023-01-29T08:38:00.948Z,28.95
2023-01-29T08:40:30.544Z,29.20
2023-01-29T08:43:09.477Z,26.23
2023-01-29T08:45:39.897Z,30.77
2023-01-29T08:48:10.572Z,26.50
2023-01-29T08:50:38.276Z,28.15
2023-01-29T08:53:09.998Z,27.65
2023-01-29T08:55:38.339Z,27.92
2023-01-29T08:58:06.382Z,28.08
2023-01-29T09:00:34.301Z,26.35
2023-01-29T09:03:01.708Z,27.33
2023-01-29T09:05:28.674Z,27.50
2023-01-29T09:07:58.824Z,27.05
2023-01-29T09:10:26.849Z,28.63
2023-01-29T09:12:53.602Z,29.58
2023-01-29T09:15:20.786Z,26.70
2023-01-29T09:17:49.448Z,28.58
2023-01-29T09:20:16.675Z,28.17
2023-01-29T09:22:44.086Z,27.67
2023-01-29T09:25:11.241Z,28.02
2023-01-29T09:27:39.250Z,29.05
2023-01-29T09:30:06.821Z,28.80
2023-01-29T09:32:52.787Z,28.17
2023-01-29T09:35:27.201Z,28.30
2023-01-29T09:37:54.129Z,28.20
2023-01-29T09:40:43.617Z,29.88
2023-01-29T09:43:24.754Z,29.88
2023-01-29T09:46:21.884Z,30.45
2023-01-29T09:48:56.861Z,29.45
2023-01-29T09:51:38.465Z,29.40
2023-01-29T09:54:24.747Z,31.17
2023-01-29T09:56:56.171Z,28.55
2023-01-29T09:59:29.730Z,30.33
2023-01-29T10:02:20.989Z,27.23
2023-01-29T10:05:09.568Z,30.60
2023-01-29T10:08:03.372Z,29.20
2023-01-29T10:10:54.525Z,29.52
2023-01-29T10:13:40.159Z,30.77
2023-01-29T10:16:19.280Z,31.08
2023-01-29T10:19:02.165Z,31.15
2023-01-29T10:21:57.224Z,29.65
2023-01-29T10:24:40.828Z,29.90
2023-01-29T10:27:17.743Z,29.58
2023-01-29T10:29:47.238Z,30.23
2023-01-29T10:32:19.637Z,29.52
2023-01-29T10:35:00.814Z,31.02
2023-01-29T10:37:40.728Z,30.50
2023-01-29T10:40:44.078Z,30.17
2023-01-29T10:43:22.334Z,31.02
2023-01-29T10:46:04.305Z,29.73
2023-01-29T10:48:47.786Z,30.15
2023-01-29T10:51:38.646Z,29.95
2023-01-29T10:54:30.403Z,29.10
2023-01-29T10:57:20.969Z,31.23
2023-01-29T11:00:11.794Z,29.10
2023-01-29T11:02:45.898Z,30.13
2023-01-29T11:05:39.041Z,30.83
2023-01-29T11:08:16.979Z,29.60
2023-01-29T11:11:06.613Z,30.73
2023-01-29T11:13:57.484Z,31.00
2023-01-29T11:16:24.705Z,30.25
2023-01-29T11:19:01.662Z,29.33
2023-01-29T11:21:30.065Z,29.30
2023-01-29T11:24:16.780Z,29.08
2023-01-29T11:26:46.182Z,29.42
2023-01-29T11:29:45.904Z,29.73
2023-01-29T11:32:24.873Z,29.58
2023-01-29T11:34:58.828Z,28.00
2023-01-29T11:39:59.023Z,29.52
2023-01-29T11:42:35.702Z,30.25
2023-01-29T11:45:02.453Z,30.15
2023-01-29T11:47:33.261Z,27.50
2023-01-29T11:50:02.704Z,28.02
2023-01-29T11:52:40.984Z,29.98
2023-01-29T11:55:18.746Z,29.08
2023-01-29T11:57:55.136Z,28.65
2023-01-29T12:00:28.982Z,27.38
2023-01-29T12:02:57.876Z,29.75
2023-01-29T12:05:29.885Z,29.08
2023-01-29T12:08:00.427Z,29.27
2023-01-29T12:10:41.927Z,28.02
2023-01-29T12:13:12.109Z,28.35
2023-01-29T12:15:40.621Z,27.35
2023-01-29T12:18:24.705Z,27.67
2023-01-29T12:21:04.731Z,26.05
2023-01-29T12:23:51.520Z,25.60
2023-01-29T12:26:30.721Z,25.92
2023-01-29T12:29:18.163Z,27.05
2023-01-29T12:32:19.976Z,26.88
2023-01-29T12:35:23.426Z,27.48
2023-01-29T12:38:18.116Z,26.65
2023-01-29T12:43:17.336Z,23.83
2023-01-29T12:45:47.912Z,23.10
2023-01-29T12:48:23.741Z,24.88
2023-01-29T12:50:52.909Z,23.63
2023-01-29T12:53:37.612Z,25.10
2023-01-29T12:56:15.258Z,25.48
2023-01-29T12:58:48.190Z,24.52
2023-01-29T13:01:52.586Z,22.33
2023-01-29T13:04:43.954Z,23.27
2023-01-29T13:07:19.042Z,23.15
2023-01-29T13:09:56.415Z,22.77
2023-01-29T13:12:25.133Z,24.58
2023-01-29T13:14:59.419Z,21.27
2023-01-29T13:17:46.739Z,21.08
2023-01-29T13:20:24.991Z,24.85
2023-01-29T13:22:55.827Z,23.63
2023-01-29T13:25:22.961Z,25.15
2023-01-29T13:27:50.773Z,25.58
2023-01-29T13:30:32.448Z,23.05
2023-01-29T13:33:11.453Z,19.27
2023-01-29T13:35:54.358Z,18.10
2023-01-29T13:38:31.451Z,19.20
2023-01-29T13:41:04.128Z,19.05
2023-01-29T13:43:38.567Z,17.67
2023-01-29T13:46:14.335Z,16.75
2023-01-29T13:48:49.714Z,19.30
2023-01-29T13:51:23.374Z,17.63
2023-01-29T13:54:02.025Z,17.02
2023-01-29T13:56:44.074Z,17.88
2023-01-29T13:59:23.133Z,20.75
2023-01-29T14:02:04.066Z,22.65
2023-01-29T14:04:32.818Z,19.83
2023-01-29T14:07:03.547Z,20.35
2023-01-29T14:09:37.278Z,20.90
2023-01-29T14:12:27.831Z,22.05
2023-01-29T14:14:57.390Z,20.67
2023-01-29T14:17:26.965Z,19.77
2023-01-29T14:20:17.194Z,14.32
2023-01-29T14:22:44.229Z,15.25
2023-01-29T14:25:20.067Z,16.02
2023-01-29T14:27:50.189Z,16.98
2023-01-29T14:30:19.699Z,17.05
2023-01-29T14:32:59.771Z,18.45
2023-01-29T14:35:35.110Z,17.35
2023-01-29T14:38:06.079Z,15.55
2023-01-29T14:40:35.751Z,15.25
2023-01-29T14:43:12.721Z,16.60
2023-01-29T14:45:41.930Z,16.08
2023-01-29T14:48:13.787Z,18.02
2023-01-29T14:50:45.033Z,18.98
2023-01-29T14:53:50.298Z,18.48
2023-01-29T14:56:18.744Z,19.33
2023-01-29T14:58:49.968Z,19.48
2023-01-29T15:01:38.007Z,21.08
2023-01-29T15:04:24.734Z,25.33
2023-01-29T15:07:22.223Z,20.17
2023-01-29T15:10:13.593Z,22.80
2023-01-29T15:13:05.286Z,20.60
2023-01-29T15:15:49.637Z,20.80
2023-01-29T15:18:23.743Z,19.52
2023-01-29T15:21:05.787Z,17.27
2023-01-29T15:23:35.231Z,17.63
2023-01-29T15:26:06.002Z,18.42
2023-01-29T15:28:34.720Z,19.70
2023-01-29T15:31:06.374Z,17.70
2023-01-29T15:33:34.903Z,17.20
2023-01-29T15:36:08.425Z,17.42
2023-01-29T15:38:36.425Z,15.93
2023-01-29T15:41:17.250Z,15.40
2023-01-29T15:43:46.208Z,14.60
2023-01-29T15:46:34.492Z,15.85
2023-01-29T15:49:08.546Z,14.10
2023-01-29T15:54:05.740Z,15.40
2023-01-29T15:56:39.891Z,15.20
2023-01-29T15:59:12.769Z,14.43
2023-01-29T16:01:39.647Z,17.77
2023-01-29T16:04:14.376Z,17.52
2023-01-29T16:06:42.852Z,17.98
2023-01-29T16:09:17.525Z,16.02
2023-01-29T16:11:48.043Z,16.48
2023-01-29T16:14:19.165Z,16.55
2023-01-29T16:16:48.654Z,15.68
2023-01-29T16:19:30.027Z,17.60
2023-01-29T16:22:06.252Z,17.90
2023-01-29T16:24:37.019Z,17.10
2023-01-29T16:27:12.661Z,22.23
2023-01-29T16:29:39.788Z,17.77
2023-01-29T16:32:11.893Z,17.85
2023-01-29T16:34:44.491Z,17.92
2023-01-29T16:37:40.490Z,23.77
2023-01-29T16:40:25.173Z,22.70
2023-01-29T16:43:28.386Z,22.63
2023-01-29T16:46:36.556Z,21.10
2023-01-29T16:49:29.368Z,22.90
2023-01-29T16:52:16.088Z,23.35
2023-01-29T16:54:43.563Z,24.00
2023-01-29T16:57:26.006Z,20.98
2023-01-29T16:59:55.539Z,19.70
2023-01-29T17:02:24.366Z,19.45
2023-01-29T17:04:53.789Z,18.85
2023-01-29T17:07:22.403Z,18.65
2023-01-29T17:09:53.881Z,18.33
2023-01-29T17:12:24.137Z,22.02
2023-01-29T17:15:01.024Z,19.83
2023-01-29T17:17:33.859Z,19.38
2023-01-29T17:20:14.069Z,18.50
2023-01-29T17:22:41.030Z,19.13
2023-01-29T17:25:09.820Z,19.55
2023-01-29T17:27:45.611Z,19.38
2023-01-29T17:30:18.017Z,21.85
2023-01-29T17:32:47.823Z,24.45
2023-01-29T17:35:19.501Z,25.80
2023-01-29T17:37:47.527Z,26.70
2023-01-29T17:40:21.889Z,25.85
2023-01-29T17:42:56.383Z,22.50
2023-01-29T17:45:23.241Z,20.17
2023-01-29T17:47:50.525Z,20.95
2023-01-29T17:50:25.744Z,31.02
2023-01-29T17:52:53.849Z,20.63
2023-01-29T17:55:20.761Z,20.30
2023-01-29T17:57:50.215Z,19.55
2023-01-29T18:00:20.453Z,22.13
2023-01-29T18:02:48.752Z,21.13
2023-01-29T18:05:20.018Z,20.85
2023-01-29T18:07:47.779Z,21.90
2023-01-29T18:10:21.629Z,22.42
2023-01-29T18:12:51.831Z,23.42
2023-01-29T18:15:20.108Z,22.25
2023-01-29T18:17:48.442Z,23.67
2023-01-29T18:20:23.767Z,21.77
2023-01-29T18:22:50.842Z,23.38
2023-01-29T18:25:18.262Z,23.65
2023-01-29T18:27:46.273Z,24.65
2023-01-29T18:30:13.908Z,23.48
2023-01-29T18:32:42.046Z,22.27
2023-01-29T18:35:09.985Z,21.40
2023-01-29T18:37:36.693Z,22.75
2023-01-29T18:40:04.080Z,21.05
2023-01-29T18:42:35.976Z,21.45
2023-01-29T18:45:03.813Z,21.75
2023-01-29T18:47:30.642Z,20.95
2023-01-29T18:49:58.448Z,20.38
2023-01-29T18:52:26.245Z,18.05
2023-01-29T18:54:53.798Z,19.90
2023-01-29T18:58:26.332Z,20.05
2023-01-29T19:00:08.391Z,20.45
2023-01-29T19:02:35.641Z,19.20
2023-01-29T19:05:02.852Z,18.55
2023-01-29T19:07:31.027Z,23.65
2023-01-29T19:09:57.785Z,20.13
2023-01-29T19:12:27.478Z,19.42
2023-01-29T19:14:54.287Z,18.33
2023-01-29T19:17:21.282Z,18.63
2023-01-29T19:19:48.011Z,18.60
2023-01-29T19:22:16.664Z,18.50
2023-01-29T19:24:44.483Z,19.33
2023-01-29T19:27:12.430Z,18.52
2023-01-29T19:29:40.451Z,17.75
2023-01-29T19:32:09.204Z,17.05
2023-01-29T19:34:35.986Z,18.10
2023-01-29T19:37:03.988Z,16.60
2023-01-29T19:39:33.808Z,17.92
2023-01-29T19:42:01.730Z,16.17
2023-01-29T19:44:28.499Z,17.63
2023-01-29T19:46:57.567Z,16.58
2023-01-29T19:49:25.305Z,17.85
2023-01-29T19:51:52.027Z,18.70
2023-01-29T19:54:20.455Z,17.65
2023-01-29T19:56:48.365Z,24.75
2023-01-29T19:59:15.092Z,18.70
2023-01-29T20:01:44.968Z,17.90
2023-01-29T20:04:11.701Z,19.17
2023-01-29T20:06:41.208Z,19.27
2023-01-29T20:09:10.054Z,17.48
2023-01-29T20:11:38.132Z,18.58
2023-01-29T20:14:07.426Z,18.73
2023-01-29T20:16:37.726Z,18.73
2023-01-29T20:19:14.172Z,18.08
2023-01-29T20:21:42.838Z,18.30
2023-01-29T20:24:13.963Z,19.10
2023-01-29T20:26:43.964Z,18.83
2023-01-29T20:29:11.528Z,18.45
2023-01-29T20:31:38.248Z,18.38
2023-01-29T20:34:04.996Z,18.60
2023-01-29T20:36:33.899Z,19.25
2023-01-29T20:39:01.816Z,18.30
2023-01-29T20:41:29.515Z,19.42
2023-01-29T20:43:56.226Z,18.38
2023-01-29T20:46:23.255Z,19.30
2023-01-29T20:48:53.226Z,18.98
2023-01-29T20:51:20.687Z,18.83
2023-01-29T20:53:49.098Z,19.02
2023-01-29T20:56:17.727Z,19.98
2023-01-29T20:58:47.020Z,20.45
2023-01-29T21:01:19.675Z,18.92
2023-01-29T21:03:47.448Z,18.13
2023-01-29T21:06:14.774Z,19.70
2023-01-29T21:08:41.969Z,18.75
2023-01-29T21:11:10.620Z,20.38
2023-01-29T21:13:37.632Z,18.63
2023-01-29T21:16:06.469Z,19.05
2023-01-29T21:18:34.975Z,17.45
2023-01-29T21:21:01.749Z,17.75
2023-01-29T21:23:30.873Z,17.38
2023-01-29T21:26:04.424Z,19.42
2023-01-29T21:28:31.349Z,19.48
2023-01-29T21:31:10.409Z,17.83
2023-01-29T21:33:38.481Z,15.82
2023-01-29T21:36:06.022Z,18.38
2023-01-29T21:38:33.612Z,17.73
2023-01-29T21:41:02.498Z,16.42
2023-01-29T21:43:30.582Z,18.35
2023-01-29T21:46:05.039Z,15.98
2023-01-29T21:48:32.142Z,16.08
2023-01-29T21:50:58.940Z,16.88
2023-01-29T21:53:25.729Z,18.35
2023-01-29T21:55:52.556Z,18.10
2023-01-29T21:58:22.233Z,17.73
2023-01-29T22:00:52.005Z,17.10
2023-01-29T22:03:19.763Z,17.33
2023-01-29T22:05:46.727Z,19.52
2023-01-29T22:08:13.532Z,16.45
2023-01-29T22:10:41.399Z,17.00
2023-01-29T22:13:08.253Z,16.60
2023-01-29T22:15:35.055Z,17.42
2023-01-29T22:18:03.300Z,17.92
2023-01-29T22:20:30.831Z,17.30
2023-01-29T22:23:00.688Z,16.70
2023-01-29T22:25:28.072Z,17.95
2023-01-29T22:27:58.343Z,18.70
2023-01-29T22:30:27.180Z,18.83
2023-01-29T22:32:53.887Z,18.23
2023-01-29T22:35:20.958Z,18.52
2023-01-29T22:37:47.683Z,17.35
2023-01-29T22:40:14.555Z,18.73
2023-01-29T22:42:43.766Z,16.33
2023-01-29T22:45:11.148Z,16.75
2023-01-29T22:47:39.461Z,17.42
2023-01-29T22:50:07.094Z,17.60
2023-01-29T22:52:38.660Z,17.27
2023-01-29T22:55:08.177Z,18.85
2023-01-29T22:57:39.273Z,16.77
2023-01-29T23:00:10.662Z,15.77
2023-01-29T23:02:37.829Z,17.05
2023-01-29T23:05:06.123Z,16.05
2023-01-29T23:07:34.215Z,16.48
2023-01-29T23:10:01.304Z,16.70
2023-01-29T23:12:29.511Z,16.33
2023-01-29T23:14:57.892Z,16.85
2023-01-29T23:17:24.686Z,17.00
2023-01-29T23:19:51.646Z,16.83
2023-01-29T23:22:19.713Z,16.35
2023-01-29T23:24:46.417Z,15.20
2023-01-29T23:27:15.963Z,16.30
2023-01-29T23:29:47.412Z,15.27
2023-01-29T23:32:17.842Z,15.27
2023-01-29T23:34:46.297Z,16.10
2023-01-29T23:37:13.309Z,16.08
2023-01-29T23:39:40.097Z,15.02
2023-01-29T23:42:06.879Z,15.82
2023-01-29T23:44:33.797Z,13.90
2023-01-29T23:47:00.619Z,15.60
2023-01-29T23:49:31.456Z,13.80
2023-01-29T23:51:58.810Z,15.15
2023-01-29T23:54:27.161Z,14.32
2023-01-29T23:56:53.881Z,14.57
2023-01-29T23:59:20.989Z,14.77
